sensor_id;sensor_type;location;lat;lon;timestamp;temperature;humidity
55777;DHT22;54079;44.540;18.784;2022-08-01T00:01:07;17.40;70.00
55777;DHT22;54079;44.540;18.784;2022-08-01T00:03:33;17.40;71.30
55777;DHT22;54079;44.540;18.784;2022-08-01T00:05:59;17.30;70.10
55777;DHT22;54079;44.540;18.784;2022-08-01T00:08:25;17.10;71.60
55777;DHT22;54079;44.540;18.784;2022-08-01T00:10:51;17.10;71.60
55777;DHT22;54079;44.540;18.784;2022-08-01T00:13:17;17.10;72.60
55777;DHT22;54079;44.540;18.784;2022-08-01T00:15:43;17.20;72.50
55777;DHT22;54079;44.540;18.784;2022-08-01T00:18:08;17.10;73.70
55777;DHT22;54079;44.540;18.784;2022-08-01T00:20:34;17.20;72.70
55777;DHT22;54079;44.540;18.784;2022-08-01T00:23:02;17.20;72.80
55777;DHT22;54079;44.540;18.784;2022-08-01T00:25:29;17.10;72.60
55777;DHT22;54079;44.540;18.784;2022-08-01T00:27:54;17.10;73.60
55777;DHT22;54079;44.540;18.784;2022-08-01T00:30:20;17.30;73.70
55777;DHT22;54079;44.540;18.784;2022-08-01T00:32:46;17.30;72.10
55777;DHT22;54079;44.540;18.784;2022-08-01T00:35:12;17.20;73.80
55777;DHT22;54079;44.540;18.784;2022-08-01T00:37:39;17.20;73.20
55777;DHT22;54079;44.540;18.784;2022-08-01T00:40:06;17.20;73.30
55777;DHT22;54079;44.540;18.784;2022-08-01T00:42:32;17.20;74.90
55777;DHT22;54079;44.540;18.784;2022-08-01T00:44:59;17.20;75.80
55777;DHT22;54079;44.540;18.784;2022-08-01T00:47:24;17.30;73.60
55777;DHT22;54079;44.540;18.784;2022-08-01T00:49:50;17.20;73.40
55777;DHT22;54079;44.540;18.784;2022-08-01T00:52:16;17.20;72.80
55777;DHT22;54079;44.540;18.784;2022-08-01T00:54:42;17.20;74.20
55777;DHT22;54079;44.540;18.784;2022-08-01T00:57:10;17.40;73.80
55777;DHT22;54079;44.540;18.784;2022-08-01T00:59:36;17.50;73.20
55777;DHT22;54079;44.540;18.784;2022-08-01T01:02:02;17.30;73.90
55777;DHT22;54079;44.540;18.784;2022-08-01T01:04:28;17.50;72.70
55777;DHT22;54079;44.540;18.784;2022-08-01T01:07:19;17.50;70.80
55777;DHT22;54079;44.540;18.784;2022-08-01T01:18:14;17.50;73.40
55777;DHT22;54079;44.540;18.784;2022-08-01T01:20:45;17.40;71.50
55777;DHT22;54079;44.540;18.784;2022-08-01T01:23:40;17.30;73.30
55777;DHT22;54079;44.540;18.784;2022-08-01T01:31:27;17.20;74.10
55777;DHT22;54079;44.540;18.784;2022-08-01T01:33:54;17.20;75.10
55777;DHT22;54079;44.540;18.784;2022-08-01T01:36:22;17.30;74.90
55777;DHT22;54079;44.540;18.784;2022-08-01T01:38:50;17.30;75.10
55777;DHT22;54079;44.540;18.784;2022-08-01T01:41:17;17.20;75.10
55777;DHT22;54079;44.540;18.784;2022-08-01T01:43:45;17.10;73.20
55777;DHT22;54079;44.540;18.784;2022-08-01T01:46:13;16.90;76.60
55777;DHT22;54079;44.540;18.784;2022-08-01T01:48:44;16.90;78.30
55777;DHT22;54079;44.540;18.784;2022-08-01T01:51:12;16.90;77.00
55777;DHT22;54079;44.540;18.784;2022-08-01T01:53:40;16.90;74.70
55777;DHT22;54079;44.540;18.784;2022-08-01T01:56:06;16.90;73.40
55777;DHT22;54079;44.540;18.784;2022-08-01T01:58:35;16.90;75.10
55777;DHT22;54079;44.540;18.784;2022-08-01T02:01:03;16.80;76.40
55777;DHT22;54079;44.540;18.784;2022-08-01T02:03:30;16.90;74.80
55777;DHT22;54079;44.540;18.784;2022-08-01T02:05:57;16.80;78.10
55777;DHT22;54079;44.540;18.784;2022-08-01T02:08:24;16.80;76.40
55777;DHT22;54079;44.540;18.784;2022-08-01T02:10:53;16.70;78.80
55777;DHT22;54079;44.540;18.784;2022-08-01T02:13:38;16.70;77.20
55777;DHT22;54079;44.540;18.784;2022-08-01T02:16:07;16.70;77.00
55777;DHT22;54079;44.540;18.784;2022-08-01T02:18:34;16.80;78.40
55777;DHT22;54079;44.540;18.784;2022-08-01T02:21:04;16.90;77.30
55777;DHT22;54079;44.540;18.784;2022-08-01T02:23:34;16.80;77.90
55777;DHT22;54079;44.540;18.784;2022-08-01T02:26:07;16.90;76.60
55777;DHT22;54079;44.540;18.784;2022-08-01T02:28:38;16.80;76.70
55777;DHT22;54079;44.540;18.784;2022-08-01T02:31:10;16.80;78.40
55777;DHT22;54079;44.540;18.784;2022-08-01T02:33:39;16.70;77.70
55777;DHT22;54079;44.540;18.784;2022-08-01T02:36:07;16.60;78.50
55777;DHT22;54079;44.540;18.784;2022-08-01T02:38:37;16.60;77.00
55777;DHT22;54079;44.540;18.784;2022-08-01T02:41:09;16.60;79.60
55777;DHT22;54079;44.540;18.784;2022-08-01T02:43:42;16.60;79.20
55777;DHT22;54079;44.540;18.784;2022-08-01T02:46:13;16.60;79.10
55777;DHT22;54079;44.540;18.784;2022-08-01T02:48:42;16.60;78.60
55777;DHT22;54079;44.540;18.784;2022-08-01T02:51:10;16.60;78.60
55777;DHT22;54079;44.540;18.784;2022-08-01T02:53:38;16.50;79.20
55777;DHT22;54079;44.540;18.784;2022-08-01T02:56:08;16.60;79.00
55777;DHT22;54079;44.540;18.784;2022-08-01T02:58:35;16.60;80.50
55777;DHT22;54079;44.540;18.784;2022-08-01T03:01:04;16.50;78.30
55777;DHT22;54079;44.540;18.784;2022-08-01T03:03:31;16.50;77.10
55777;DHT22;54079;44.540;18.784;2022-08-01T03:05:58;16.40;77.50
55777;DHT22;54079;44.540;18.784;2022-08-01T03:08:25;16.40;77.80
55777;DHT22;54079;44.540;18.784;2022-08-01T03:10:54;16.40;78.20
55777;DHT22;54079;44.540;18.784;2022-08-01T03:13:21;16.40;81.60
55777;DHT22;54079;44.540;18.784;2022-08-01T03:15:49;16.30;81.00
55777;DHT22;54079;44.540;18.784;2022-08-01T03:18:17;16.20;83.00
55777;DHT22;54079;44.540;18.784;2022-08-01T03:20:45;16.20;84.80
55777;DHT22;54079;44.540;18.784;2022-08-01T03:23:11;16.20;85.50
55777;DHT22;54079;44.540;18.784;2022-08-01T03:25:40;16.20;83.30
55777;DHT22;54079;44.540;18.784;2022-08-01T03:28:08;16.20;83.20
55777;DHT22;54079;44.540;18.784;2022-08-01T03:30:36;16.40;82.00
55777;DHT22;54079;44.540;18.784;2022-08-01T03:33:02;16.20;84.20
55777;DHT22;54079;44.540;18.784;2022-08-01T03:35:33;16.30;83.60
55777;DHT22;54079;44.540;18.784;2022-08-01T03:38:01;16.30;85.70
55777;DHT22;54079;44.540;18.784;2022-08-01T03:40:45;16.20;86.80
55777;DHT22;54079;44.540;18.784;2022-08-01T03:43:20;16.30;86.30
55777;DHT22;54079;44.540;18.784;2022-08-01T03:45:51;16.30;83.90
55777;DHT22;54079;44.540;18.784;2022-08-01T03:48:19;16.40;83.30
55777;DHT22;54079;44.540;18.784;2022-08-01T03:50:50;16.30;84.80
55777;DHT22;54079;44.540;18.784;2022-08-01T03:53:22;16.40;82.20
55777;DHT22;54079;44.540;18.784;2022-08-01T03:55:49;16.40;81.90
55777;DHT22;54079;44.540;18.784;2022-08-01T03:58:16;16.50;84.30
55777;DHT22;54079;44.540;18.784;2022-08-01T04:00:43;16.60;85.60
55777;DHT22;54079;44.540;18.784;2022-08-01T04:03:10;16.70;84.50
55777;DHT22;54079;44.540;18.784;2022-08-01T04:05:41;16.70;83.30
55777;DHT22;54079;44.540;18.784;2022-08-01T04:08:07;16.60;82.40
55777;DHT22;54079;44.540;18.784;2022-08-01T04:10:33;16.60;82.90
55777;DHT22;54079;44.540;18.784;2022-08-01T04:12:59;16.50;81.60
55777;DHT22;54079;44.540;18.784;2022-08-01T04:15:25;16.50;82.00
55777;DHT22;54079;44.540;18.784;2022-08-01T04:17:51;16.60;81.40
55777;DHT22;54079;44.540;18.784;2022-08-01T04:20:17;16.60;82.90
55777;DHT22;54079;44.540;18.784;2022-08-01T04:22:43;16.80;82.00
55777;DHT22;54079;44.540;18.784;2022-08-01T04:25:14;16.80;85.20
55777;DHT22;54079;44.540;18.784;2022-08-01T04:27:45;17.00;84.40
55777;DHT22;54079;44.540;18.784;2022-08-01T04:30:12;17.10;83.20
55777;DHT22;54079;44.540;18.784;2022-08-01T04:32:39;17.10;82.10
55777;DHT22;54079;44.540;18.784;2022-08-01T04:35:11;17.20;83.20
55777;DHT22;54079;44.540;18.784;2022-08-01T04:37:38;17.30;83.00
55777;DHT22;54079;44.540;18.784;2022-08-01T04:40:06;17.40;81.50
55777;DHT22;54079;44.540;18.784;2022-08-01T04:42:33;17.60;81.50
55777;DHT22;54079;44.540;18.784;2022-08-01T04:44:59;17.80;78.70
55777;DHT22;54079;44.540;18.784;2022-08-01T04:47:26;18.00;78.20
55777;DHT22;54079;44.540;18.784;2022-08-01T04:49:53;18.50;76.50
55777;DHT22;54079;44.540;18.784;2022-08-01T04:52:19;21.20;71.00
55777;DHT22;54079;44.540;18.784;2022-08-01T04:54:46;23.80;62.60
55777;DHT22;54079;44.540;18.784;2022-08-01T04:57:15;25.80;58.50
55777;DHT22;54079;44.540;18.784;2022-08-01T04:59:43;27.60;53.00
55777;DHT22;54079;44.540;18.784;2022-08-01T05:02:17;28.80;50.30
55777;DHT22;54079;44.540;18.784;2022-08-01T05:04:45;29.30;49.00
55777;DHT22;54079;44.540;18.784;2022-08-01T05:07:12;29.10;47.90
55777;DHT22;54079;44.540;18.784;2022-08-01T05:09:39;29.30;48.10
55777;DHT22;54079;44.540;18.784;2022-08-01T05:12:07;29.20;47.00
55777;DHT22;54079;44.540;18.784;2022-08-01T05:14:35;28.60;47.30
55777;DHT22;54079;44.540;18.784;2022-08-01T05:17:02;29.50;47.20
55777;DHT22;54079;44.540;18.784;2022-08-01T05:19:33;31.40;45.20
55777;DHT22;54079;44.540;18.784;2022-08-01T05:22:01;33.00;43.30
55777;DHT22;54079;44.540;18.784;2022-08-01T05:24:37;33.60;41.80
55777;DHT22;54079;44.540;18.784;2022-08-01T05:27:04;34.20;41.00
55777;DHT22;54079;44.540;18.784;2022-08-01T05:29:31;35.00;40.30
55777;DHT22;54079;44.540;18.784;2022-08-01T05:31:57;35.50;38.30
55777;DHT22;54079;44.540;18.784;2022-08-01T05:34:25;36.40;37.90
55777;DHT22;54079;44.540;18.784;2022-08-01T05:36:51;37.00;37.10
55777;DHT22;54079;44.540;18.784;2022-08-01T05:39:17;37.60;37.40
55777;DHT22;54079;44.540;18.784;2022-08-01T05:41:43;38.40;36.50
55777;DHT22;54079;44.540;18.784;2022-08-01T05:44:09;38.90;36.10
55777;DHT22;54079;44.540;18.784;2022-08-01T05:46:35;39.50;36.50
55777;DHT22;54079;44.540;18.784;2022-08-01T05:49:02;40.20;35.90
55777;DHT22;54079;44.540;18.784;2022-08-01T05:51:28;40.30;35.60
55777;DHT22;54079;44.540;18.784;2022-08-01T05:53:54;40.40;35.50
55777;DHT22;54079;44.540;18.784;2022-08-01T05:56:21;40.90;34.90
55777;DHT22;54079;44.540;18.784;2022-08-01T05:58:48;40.80;34.50
55777;DHT22;54079;44.540;18.784;2022-08-01T06:01:15;41.40;34.30
55777;DHT22;54079;44.540;18.784;2022-08-01T06:03:41;42.30;34.40
55777;DHT22;54079;44.540;18.784;2022-08-01T06:06:07;42.30;33.80
55777;DHT22;54079;44.540;18.784;2022-08-01T06:08:33;42.40;33.80
55777;DHT22;54079;44.540;18.784;2022-08-01T06:10:59;42.60;33.60
55777;DHT22;54079;44.540;18.784;2022-08-01T06:13:25;42.80;33.30
55777;DHT22;54079;44.540;18.784;2022-08-01T06:15:51;43.20;33.20
55777;DHT22;54079;44.540;18.784;2022-08-01T06:18:17;43.50;33.00
55777;DHT22;54079;44.540;18.784;2022-08-01T06:20:44;43.80;32.90
55777;DHT22;54079;44.540;18.784;2022-08-01T06:23:10;44.20;32.10
55777;DHT22;54079;44.540;18.784;2022-08-01T06:25:36;44.50;30.90
55777;DHT22;54079;44.540;18.784;2022-08-01T06:28:03;44.80;32.10
55777;DHT22;54079;44.540;18.784;2022-08-01T06:30:29;44.60;30.50
55777;DHT22;54079;44.540;18.784;2022-08-01T06:32:55;44.90;30.80
55777;DHT22;54079;44.540;18.784;2022-08-01T06:35:24;45.70;30.50
55777;DHT22;54079;44.540;18.784;2022-08-01T06:37:50;45.70;30.30
55777;DHT22;54079;44.540;18.784;2022-08-01T06:40:16;46.10;30.40
55777;DHT22;54079;44.540;18.784;2022-08-01T06:42:44;46.30;30.80
55777;DHT22;54079;44.540;18.784;2022-08-01T06:45:12;46.30;30.20
55777;DHT22;54079;44.540;18.784;2022-08-01T06:47:39;46.70;31.10
55777;DHT22;54079;44.540;18.784;2022-08-01T06:50:07;47.00;30.70
55777;DHT22;54079;44.540;18.784;2022-08-01T06:52:35;47.10;30.00
55777;DHT22;54079;44.540;18.784;2022-08-01T06:55:01;47.10;30.00
55777;DHT22;54079;44.540;18.784;2022-08-01T06:57:27;47.40;30.00
55777;DHT22;54079;44.540;18.784;2022-08-01T06:59:54;47.70;30.30
55777;DHT22;54079;44.540;18.784;2022-08-01T07:02:21;48.00;30.10
55777;DHT22;54079;44.540;18.784;2022-08-01T07:04:47;47.80;30.30
55777;DHT22;54079;44.540;18.784;2022-08-01T07:07:13;47.90;30.50
55777;DHT22;54079;44.540;18.784;2022-08-01T07:09:39;48.10;30.20
55777;DHT22;54079;44.540;18.784;2022-08-01T07:12:08;48.30;30.20
55777;DHT22;54079;44.540;18.784;2022-08-01T07:14:34;47.50;30.50
55777;DHT22;54079;44.540;18.784;2022-08-01T07:17:00;47.60;30.60
55777;DHT22;54079;44.540;18.784;2022-08-01T07:19:26;47.10;30.50
55777;DHT22;54079;44.540;18.784;2022-08-01T07:21:53;47.60;30.40
55777;DHT22;54079;44.540;18.784;2022-08-01T07:24:19;47.60;30.20
55777;DHT22;54079;44.540;18.784;2022-08-01T07:26:46;48.00;30.00
55777;DHT22;54079;44.540;18.784;2022-08-01T07:29:12;48.50;30.00
55777;DHT22;54079;44.540;18.784;2022-08-01T07:31:38;48.40;30.00
55777;DHT22;54079;44.540;18.784;2022-08-01T07:34:04;48.40;30.00
55777;DHT22;54079;44.540;18.784;2022-08-01T07:36:30;48.40;29.90
55777;DHT22;54079;44.540;18.784;2022-08-01T07:38:56;48.60;29.90
55777;DHT22;54079;44.540;18.784;2022-08-01T07:41:22;48.90;29.80
55777;DHT22;54079;44.540;18.784;2022-08-01T07:43:49;49.10;29.70
55777;DHT22;54079;44.540;18.784;2022-08-01T07:46:15;49.20;29.60
55777;DHT22;54079;44.540;18.784;2022-08-01T07:48:41;49.00;29.50
55777;DHT22;54079;44.540;18.784;2022-08-01T07:51:07;49.10;30.00
55777;DHT22;54079;44.540;18.784;2022-08-01T07:53:37;49.10;29.70
55777;DHT22;54079;44.540;18.784;2022-08-01T07:56:04;48.70;29.90
55777;DHT22;54079;44.540;18.784;2022-08-01T07:58:33;48.70;29.90
55777;DHT22;54079;44.540;18.784;2022-08-01T08:00:59;48.60;29.80
55777;DHT22;54079;44.540;18.784;2022-08-01T08:03:25;48.60;30.00
55777;DHT22;54079;44.540;18.784;2022-08-01T08:05:52;48.70;30.10
55777;DHT22;54079;44.540;18.784;2022-08-01T08:08:18;48.70;30.00
55777;DHT22;54079;44.540;18.784;2022-08-01T08:10:44;48.90;30.00
55777;DHT22;54079;44.540;18.784;2022-08-01T08:13:10;49.20;29.70
55777;DHT22;54079;44.540;18.784;2022-08-01T08:15:36;49.40;29.80
55777;DHT22;54079;44.540;18.784;2022-08-01T08:18:06;49.60;29.60
55777;DHT22;54079;44.540;18.784;2022-08-01T08:20:32;49.80;29.50
55777;DHT22;54079;44.540;18.784;2022-08-01T08:22:58;49.90;29.70
55777;DHT22;54079;44.540;18.784;2022-08-01T08:25:25;49.90;29.40
55777;DHT22;54079;44.540;18.784;2022-08-01T08:27:52;49.70;29.40
55777;DHT22;54079;44.540;18.784;2022-08-01T08:30:18;49.50;29.40
55777;DHT22;54079;44.540;18.784;2022-08-01T08:32:44;49.30;29.70
55777;DHT22;54079;44.540;18.784;2022-08-01T08:35:10;49.50;29.50
55777;DHT22;54079;44.540;18.784;2022-08-01T08:37:37;49.80;29.50
55777;DHT22;54079;44.540;18.784;2022-08-01T08:40:05;49.80;29.50
55777;DHT22;54079;44.540;18.784;2022-08-01T08:42:31;49.60;29.40
55777;DHT22;54079;44.540;18.784;2022-08-01T08:44:57;49.20;29.40
55777;DHT22;54079;44.540;18.784;2022-08-01T08:47:24;48.80;29.30
55777;DHT22;54079;44.540;18.784;2022-08-01T08:49:53;48.40;30.00
55777;DHT22;54079;44.540;18.784;2022-08-01T08:52:20;48.50;29.60
55777;DHT22;54079;44.540;18.784;2022-08-01T08:54:48;48.20;29.70
55777;DHT22;54079;44.540;18.784;2022-08-01T08:57:15;47.10;30.30
55777;DHT22;54079;44.540;18.784;2022-08-01T08:59:44;46.60;30.00
55777;DHT22;54079;44.540;18.784;2022-08-01T09:02:10;46.80;30.10
55777;DHT22;54079;44.540;18.784;2022-08-01T09:04:37;47.00;30.20
55777;DHT22;54079;44.540;18.784;2022-08-01T09:07:05;46.90;30.30
55777;DHT22;54079;44.540;18.784;2022-08-01T09:09:32;45.20;30.40
55777;DHT22;54079;44.540;18.784;2022-08-01T09:11:58;43.40;31.80
55777;DHT22;54079;44.540;18.784;2022-08-01T09:14:25;42.50;32.20
55777;DHT22;54079;44.540;18.784;2022-08-01T09:17:00;40.80;33.20
55777;DHT22;54079;44.540;18.784;2022-08-01T09:19:35;38.90;34.40
55777;DHT22;54079;44.540;18.784;2022-08-01T09:22:03;37.60;36.10
55777;DHT22;54079;44.540;18.784;2022-08-01T09:24:31;36.40;36.70
55777;DHT22;54079;44.540;18.784;2022-08-01T09:26:58;35.40;37.50
55777;DHT22;54079;44.540;18.784;2022-08-01T09:29:31;35.30;38.10
55777;DHT22;54079;44.540;18.784;2022-08-01T09:31:57;35.30;37.90
55777;DHT22;54079;44.540;18.784;2022-08-01T09:34:30;35.00;38.10
55777;DHT22;54079;44.540;18.784;2022-08-01T09:37:00;34.70;37.90
55777;DHT22;54079;44.540;18.784;2022-08-01T09:39:31;34.50;38.80
55777;DHT22;54079;44.540;18.784;2022-08-01T09:42:01;34.20;37.90
55777;DHT22;54079;44.540;18.784;2022-08-01T09:44:38;33.60;38.00
55777;DHT22;54079;44.540;18.784;2022-08-01T09:47:04;32.90;37.20
55777;DHT22;54079;44.540;18.784;2022-08-01T09:49:34;32.60;38.60
55777;DHT22;54079;44.540;18.784;2022-08-01T09:52:15;32.40;39.90
55777;DHT22;54079;44.540;18.784;2022-08-01T09:54:43;32.30;40.20
55777;DHT22;54079;44.540;18.784;2022-08-01T09:59:40;32.30;39.80
55777;DHT22;54079;44.540;18.784;2022-08-01T10:02:12;32.60;39.50
55777;DHT22;54079;44.540;18.784;2022-08-01T10:04:46;32.60;38.60
55777;DHT22;54079;44.540;18.784;2022-08-01T10:07:13;32.60;38.60
55777;DHT22;54079;44.540;18.784;2022-08-01T10:09:42;32.60;38.40
55777;DHT22;54079;44.540;18.784;2022-08-01T10:12:13;32.40;37.80
55777;DHT22;54079;44.540;18.784;2022-08-01T10:14:40;32.10;38.10
55777;DHT22;54079;44.540;18.784;2022-08-01T10:17:09;32.10;39.20
55777;DHT22;54079;44.540;18.784;2022-08-01T10:19:37;32.30;39.30
55777;DHT22;54079;44.540;18.784;2022-08-01T10:22:07;32.30;39.40
55777;DHT22;54079;44.540;18.784;2022-08-01T10:24:37;32.30;39.20
55777;DHT22;54079;44.540;18.784;2022-08-01T10:27:05;32.30;39.20
55777;DHT22;54079;44.540;18.784;2022-08-01T10:29:41;32.10;39.20
55777;DHT22;54079;44.540;18.784;2022-08-01T10:32:08;32.20;39.50
55777;DHT22;54079;44.540;18.784;2022-08-01T10:34:37;32.10;39.20
55777;DHT22;54079;44.540;18.784;2022-08-01T10:37:05;32.00;39.70
55777;DHT22;54079;44.540;18.784;2022-08-01T10:39:33;31.80;39.70
55777;DHT22;54079;44.540;18.784;2022-08-01T10:41:59;31.80;39.50
55777;DHT22;54079;44.540;18.784;2022-08-01T10:44:28;31.40;40.10
55777;DHT22;54079;44.540;18.784;2022-08-01T10:47:09;31.60;40.20
55777;DHT22;54079;44.540;18.784;2022-08-01T10:49:43;31.80;40.10
55777;DHT22;54079;44.540;18.784;2022-08-01T10:52:17;32.00;39.50
55777;DHT22;54079;44.540;18.784;2022-08-01T10:54:44;32.20;38.50
55777;DHT22;54079;44.540;18.784;2022-08-01T10:57:10;32.50;38.60
55777;DHT22;54079;44.540;18.784;2022-08-01T10:59:49;32.70;38.70
55777;DHT22;54079;44.540;18.784;2022-08-01T11:02:29;32.80;38.80
55777;DHT22;54079;44.540;18.784;2022-08-01T11:07:24;32.40;38.40
55777;DHT22;54079;44.540;18.784;2022-08-01T11:10:13;31.90;38.40
55777;DHT22;54079;44.540;18.784;2022-08-01T11:12:42;32.00;37.40
55777;DHT22;54079;44.540;18.784;2022-08-01T11:17:37;32.50;38.50
55777;DHT22;54079;44.540;18.784;2022-08-01T11:20:24;32.60;38.10
55777;DHT22;54079;44.540;18.784;2022-08-01T11:30:48;32.80;37.90
55777;DHT22;54079;44.540;18.784;2022-08-01T11:33:16;32.80;36.90
55777;DHT22;54079;44.540;18.784;2022-08-01T11:38:41;33.10;37.50
55777;DHT22;54079;44.540;18.784;2022-08-01T11:44:00;33.10;38.60
55777;DHT22;54079;44.540;18.784;2022-08-01T11:46:53;33.10;38.70
55777;DHT22;54079;44.540;18.784;2022-08-01T11:49:23;33.10;38.60
55777;DHT22;54079;44.540;18.784;2022-08-01T11:52:00;33.00;39.10
55777;DHT22;54079;44.540;18.784;2022-08-01T11:54:29;32.90;39.20
55777;DHT22;54079;44.540;18.784;2022-08-01T11:57:01;32.90;39.90
55777;DHT22;54079;44.540;18.784;2022-08-01T11:59:28;32.70;38.60
55777;DHT22;54079;44.540;18.784;2022-08-01T12:01:54;32.80;39.30
55777;DHT22;54079;44.540;18.784;2022-08-01T12:04:20;32.90;39.30
55777;DHT22;54079;44.540;18.784;2022-08-01T12:06:46;33.10;39.20
55777;DHT22;54079;44.540;18.784;2022-08-01T12:11:42;33.20;39.00
55777;DHT22;54079;44.540;18.784;2022-08-01T12:14:08;32.90;39.90
55777;DHT22;54079;44.540;18.784;2022-08-01T12:16:34;32.70;39.70
55777;DHT22;54079;44.540;18.784;2022-08-01T12:19:00;32.80;40.20
55777;DHT22;54079;44.540;18.784;2022-08-01T12:21:26;32.80;40.00
55777;DHT22;54079;44.540;18.784;2022-08-01T12:24:02;33.30;40.10
55777;DHT22;54079;44.540;18.784;2022-08-01T12:26:41;33.60;39.30
55777;DHT22;54079;44.540;18.784;2022-08-01T12:29:07;33.40;39.60
55777;DHT22;54079;44.540;18.784;2022-08-01T12:31:34;33.20;40.10
55777;DHT22;54079;44.540;18.784;2022-08-01T12:34:26;33.00;40.10
55777;DHT22;54079;44.540;18.784;2022-08-01T12:36:57;33.10;40.20
55777;DHT22;54079;44.540;18.784;2022-08-01T12:39:33;33.30;40.10
55777;DHT22;54079;44.540;18.784;2022-08-01T12:41:59;33.40;40.10
55777;DHT22;54079;44.540;18.784;2022-08-01T12:44:29;33.70;39.60
55777;DHT22;54079;44.540;18.784;2022-08-01T12:46:56;33.90;38.50
55777;DHT22;54079;44.540;18.784;2022-08-01T12:49:23;33.90;38.80
55777;DHT22;54079;44.540;18.784;2022-08-01T12:51:50;33.90;39.10
55777;DHT22;54079;44.540;18.784;2022-08-01T12:54:16;33.80;39.20
55777;DHT22;54079;44.540;18.784;2022-08-01T12:56:42;33.40;38.90
55777;DHT22;54079;44.540;18.784;2022-08-01T12:59:26;33.30;39.40
55777;DHT22;54079;44.540;18.784;2022-08-01T13:01:53;33.30;38.70
55777;DHT22;54079;44.540;18.784;2022-08-01T13:04:21;33.00;39.30
55777;DHT22;54079;44.540;18.784;2022-08-01T13:06:48;32.70;39.80
55777;DHT22;54079;44.540;18.784;2022-08-01T13:09:14;32.80;40.40
55777;DHT22;54079;44.540;18.784;2022-08-01T13:11:41;32.40;40.20
55777;DHT22;54079;44.540;18.784;2022-08-01T13:14:07;32.50;40.70
55777;DHT22;54079;44.540;18.784;2022-08-01T13:16:45;32.40;40.80
55777;DHT22;54079;44.540;18.784;2022-08-01T13:19:11;32.40;40.30
55777;DHT22;54079;44.540;18.784;2022-08-01T13:21:37;32.30;40.50
55777;DHT22;54079;44.540;18.784;2022-08-01T13:24:11;32.20;40.70
55777;DHT22;54079;44.540;18.784;2022-08-01T13:29:16;32.50;41.20
55777;DHT22;54079;44.540;18.784;2022-08-01T13:31:43;32.60;40.80
55777;DHT22;54079;44.540;18.784;2022-08-01T13:34:10;32.60;40.50
55777;DHT22;54079;44.540;18.784;2022-08-01T13:36:37;32.50;40.90
55777;DHT22;54079;44.540;18.784;2022-08-01T13:39:04;32.70;40.60
55777;DHT22;54079;44.540;18.784;2022-08-01T13:41:49;32.80;40.90
55777;DHT22;54079;44.540;18.784;2022-08-01T13:44:15;33.00;40.00
55777;DHT22;54079;44.540;18.784;2022-08-01T13:46:42;33.20;40.80
55777;DHT22;54079;44.540;18.784;2022-08-01T13:49:09;33.30;40.80
55777;DHT22;54079;44.540;18.784;2022-08-01T13:51:35;33.20;39.90
55777;DHT22;54079;44.540;18.784;2022-08-01T13:54:02;32.90;40.50
55777;DHT22;54079;44.540;18.784;2022-08-01T13:56:28;32.60;40.70
55777;DHT22;54079;44.540;18.784;2022-08-01T13:58:55;32.30;41.60
55777;DHT22;54079;44.540;18.784;2022-08-01T14:01:21;31.90;41.80
55777;DHT22;54079;44.540;18.784;2022-08-01T14:03:47;31.70;41.70
55777;DHT22;54079;44.540;18.784;2022-08-01T14:06:14;31.50;42.20
55777;DHT22;54079;44.540;18.784;2022-08-01T14:08:42;31.40;41.90
55777;DHT22;54079;44.540;18.784;2022-08-01T14:11:08;31.50;42.30
55777;DHT22;54079;44.540;18.784;2022-08-01T14:13:34;31.40;41.70
55777;DHT22;54079;44.540;18.784;2022-08-01T14:16:02;31.40;41.70
55777;DHT22;54079;44.540;18.784;2022-08-01T14:18:35;31.70;42.30
55777;DHT22;54079;44.540;18.784;2022-08-01T14:21:01;32.00;42.20
55777;DHT22;54079;44.540;18.784;2022-08-01T14:23:27;32.10;41.50
55777;DHT22;54079;44.540;18.784;2022-08-01T14:25:59;32.30;42.10
55777;DHT22;54079;44.540;18.784;2022-08-01T14:28:25;32.30;41.30
55777;DHT22;54079;44.540;18.784;2022-08-01T14:30:54;32.20;41.80
55777;DHT22;54079;44.540;18.784;2022-08-01T14:33:21;32.40;42.20
55777;DHT22;54079;44.540;18.784;2022-08-01T14:35:47;32.60;41.90
55777;DHT22;54079;44.540;18.784;2022-08-01T14:38:13;32.50;41.80
55777;DHT22;54079;44.540;18.784;2022-08-01T14:40:39;32.10;41.60
55777;DHT22;54079;44.540;18.784;2022-08-01T14:43:06;31.70;41.00
55777;DHT22;54079;44.540;18.784;2022-08-01T14:45:32;31.50;42.00
55777;DHT22;54079;44.540;18.784;2022-08-01T14:47:58;31.30;42.50
55777;DHT22;54079;44.540;18.784;2022-08-01T14:50:25;31.00;42.70
55777;DHT22;54079;44.540;18.784;2022-08-01T14:52:54;31.00;43.40
55777;DHT22;54079;44.540;18.784;2022-08-01T14:55:21;31.00;43.60
55777;DHT22;54079;44.540;18.784;2022-08-01T14:57:50;31.40;44.00
55777;DHT22;54079;44.540;18.784;2022-08-01T15:00:16;31.60;43.50
55777;DHT22;54079;44.540;18.784;2022-08-01T15:02:43;31.70;43.30
55777;DHT22;54079;44.540;18.784;2022-08-01T15:05:10;31.80;41.80
55777;DHT22;54079;44.540;18.784;2022-08-01T15:07:36;31.90;42.60
55777;DHT22;54079;44.540;18.784;2022-08-01T15:10:03;31.90;42.70
55777;DHT22;54079;44.540;18.784;2022-08-01T15:12:30;31.80;42.90
55777;DHT22;54079;44.540;18.784;2022-08-01T15:14:56;31.60;42.80
55777;DHT22;54079;44.540;18.784;2022-08-01T15:17:24;31.70;42.50
55777;DHT22;54079;44.540;18.784;2022-08-01T15:19:55;31.70;42.70
55777;DHT22;54079;44.540;18.784;2022-08-01T15:22:23;31.80;42.60
55777;DHT22;54079;44.540;18.784;2022-08-01T15:24:50;31.90;42.70
55777;DHT22;54079;44.540;18.784;2022-08-01T15:27:17;32.10;42.90
55777;DHT22;54079;44.540;18.784;2022-08-01T15:29:43;32.10;42.80
55777;DHT22;54079;44.540;18.784;2022-08-01T15:32:11;32.10;41.30
55777;DHT22;54079;44.540;18.784;2022-08-01T15:34:40;31.90;41.50
55777;DHT22;54079;44.540;18.784;2022-08-01T15:37:08;31.80;41.70
55777;DHT22;54079;44.540;18.784;2022-08-01T15:39:35;32.10;42.60
55777;DHT22;54079;44.540;18.784;2022-08-01T15:42:05;32.30;41.30
55777;DHT22;54079;44.540;18.784;2022-08-01T15:44:32;32.20;41.30
55777;DHT22;54079;44.540;18.784;2022-08-01T15:47:00;32.00;42.10
55777;DHT22;54079;44.540;18.784;2022-08-01T15:49:26;32.00;42.10
55777;DHT22;54079;44.540;18.784;2022-08-01T15:51:52;32.10;41.30
55777;DHT22;54079;44.540;18.784;2022-08-01T15:54:18;32.20;41.60
55777;DHT22;54079;44.540;18.784;2022-08-01T15:56:44;32.40;42.40
55777;DHT22;54079;44.540;18.784;2022-08-01T15:59:11;32.50;42.10
55777;DHT22;54079;44.540;18.784;2022-08-01T16:01:37;32.60;40.90